sensor_id;sensor_type;location;lat;lon;timestamp;P1;durP1;ratioP1;P2;durP2;ratioP2
2099;SDS011;1055;48.854;9.302;2023-04-25T00:01:04;5.70;;;2.50;;
2099;SDS011;1055;48.854;9.302;2023-04-25T00:03:31;6.90;;;2.70;;
2099;SDS011;1055;48.854;9.302;2023-04-25T00:05:57;5.78;;;2.70;;
2099;SDS011;1055;48.854;9.302;2023-04-25T00:08:26;6.05;;;3.38;;
2099;SDS011;1055;48.854;9.302;2023-04-25T00:10:53;6.47;;;2.90;;
2099;SDS011;1055;48.854;9.302;2023-04-25T00:13:19;6.40;;;2.70;;
2099;SDS011;1055;48.854;9.302;2023-04-25T00:15:45;5.87;;;2.67;;
2099;SDS011;1055;48.854;9.302;2023-04-25T00:18:11;6.50;;;3.05;;
2099;SDS011;1055;48.854;9.302;2023-04-25T00:20:36;6.27;;;2.80;;
2099;SDS011;1055;48.854;9.302;2023-04-25T00:23:02;8.00;;;2.77;;
2099;SDS011;1055;48.854;9.302;2023-04-25T00:25:28;6.20;;;3.40;;
2099;SDS011;1055;48.854;9.302;2023-04-25T00:27:53;6.00;;;3.10;;
2099;SDS011;1055;48.854;9.302;2023-04-25T00:30:19;6.05;;;3.33;;
2099;SDS011;1055;48.854;9.302;2023-04-25T00:32:45;7.33;;;3.30;;
2099;SDS011;1055;48.854;9.302;2023-04-25T00:35:11;6.63;;;3.10;;
2099;SDS011;1055;48.854;9.302;2023-04-25T00:37:36;7.60;;;3.00;;
2099;SDS011;1055;48.854;9.302;2023-04-25T00:40:04;9.32;;;3.83;;
2099;SDS011;1055;48.854;9.302;2023-04-25T00:42:31;7.68;;;3.65;;
2099;SDS011;1055;48.854;9.302;2023-04-25T00:44:57;7.57;;;3.20;;
2099;SDS011;1055;48.854;9.302;2023-04-25T00:47:24;5.90;;;3.13;;
2099;SDS011;1055;48.854;9.302;2023-04-25T00:49:50;5.78;;;2.92;;
2099;SDS011;1055;48.854;9.302;2023-04-25T00:52:16;6.60;;;3.40;;
2099;SDS011;1055;48.854;9.302;2023-04-25T00:54:41;6.43;;;2.83;;
2099;SDS011;1055;48.854;9.302;2023-04-25T00:57:07;6.43;;;3.22;;
2099;SDS011;1055;48.854;9.302;2023-04-25T00:59:33;7.77;;;3.10;;
2099;SDS011;1055;48.854;9.302;2023-04-25T01:02:00;6.72;;;3.22;;
2099;SDS011;1055;48.854;9.302;2023-04-25T01:04:29;5.80;;;3.00;;
2099;SDS011;1055;48.854;9.302;2023-04-25T01:06:55;5.80;;;2.90;;
2099;SDS011;1055;48.854;9.302;2023-04-25T01:09:22;6.03;;;2.63;;
2099;SDS011;1055;48.854;9.302;2023-04-25T01:11:48;6.50;;;3.10;;
2099;SDS011;1055;48.854;9.302;2023-04-25T01:14:14;6.15;;;2.72;;
2099;SDS011;1055;48.854;9.302;2023-04-25T01:16:40;7.43;;;3.17;;
2099;SDS011;1055;48.854;9.302;2023-04-25T01:19:09;7.25;;;2.90;;
2099;SDS011;1055;48.854;9.302;2023-04-25T01:21:38;6.68;;;3.10;;
2099;SDS011;1055;48.854;9.302;2023-04-25T01:24:04;6.90;;;3.10;;
2099;SDS011;1055;48.854;9.302;2023-04-25T01:26:30;5.80;;;2.85;;
2099;SDS011;1055;48.854;9.302;2023-04-25T01:28:57;6.30;;;3.90;;
2099;SDS011;1055;48.854;9.302;2023-04-25T01:31:23;7.72;;;3.10;;
2099;SDS011;1055;48.854;9.302;2023-04-25T01:33:49;6.40;;;3.00;;
2099;SDS011;1055;48.854;9.302;2023-04-25T01:36:15;6.10;;;2.60;;
2099;SDS011;1055;48.854;9.302;2023-04-25T01:38:40;7.20;;;2.83;;
2099;SDS011;1055;48.854;9.302;2023-04-25T01:41:07;9.02;;;2.97;;
2099;SDS011;1055;48.854;9.302;2023-04-25T01:43:32;6.17;;;2.80;;
2099;SDS011;1055;48.854;9.302;2023-04-25T01:45:58;7.07;;;2.73;;
2099;SDS011;1055;48.854;9.302;2023-04-25T01:48:24;6.60;;;2.93;;
2099;SDS011;1055;48.854;9.302;2023-04-25T01:50:50;7.30;;;2.67;;
2099;SDS011;1055;48.854;9.302;2023-04-25T01:53:15;6.60;;;2.90;;
2099;SDS011;1055;48.854;9.302;2023-04-25T01:55:42;9.80;;;3.27;;
2099;SDS011;1055;48.854;9.302;2023-04-25T01:58:07;5.87;;;3.00;;
2099;SDS011;1055;48.854;9.302;2023-04-25T02:00:35;6.13;;;2.80;;
2099;SDS011;1055;48.854;9.302;2023-04-25T02:03:03;6.63;;;3.08;;
2099;SDS011;1055;48.854;9.302;2023-04-25T02:05:33;6.50;;;3.25;;
2099;SDS011;1055;48.854;9.302;2023-04-25T02:08:00;9.25;;;3.15;;
2099;SDS011;1055;48.854;9.302;2023-04-25T02:10:26;6.50;;;3.00;;
2099;SDS011;1055;48.854;9.302;2023-04-25T02:12:51;6.40;;;2.63;;
2099;SDS011;1055;48.854;9.302;2023-04-25T02:15:17;6.87;;;3.00;;
2099;SDS011;1055;48.854;9.302;2023-04-25T02:17:43;7.13;;;3.43;;
2099;SDS011;1055;48.854;9.302;2023-04-25T02:20:10;6.70;;;2.85;;
2099;SDS011;1055;48.854;9.302;2023-04-25T02:22:36;7.85;;;3.33;;
2099;SDS011;1055;48.854;9.302;2023-04-25T02:25:02;7.90;;;3.00;;
2099;SDS011;1055;48.854;9.302;2023-04-25T02:27:29;7.63;;;3.10;;
2099;SDS011;1055;48.854;9.302;2023-04-25T02:29:55;5.45;;;2.70;;
2099;SDS011;1055;48.854;9.302;2023-04-25T02:32:21;6.53;;;2.83;;
2099;SDS011;1055;48.854;9.302;2023-04-25T02:34:47;7.00;;;3.40;;
2099;SDS011;1055;48.854;9.302;2023-04-25T02:37:13;7.65;;;3.05;;
2099;SDS011;1055;48.854;9.302;2023-04-25T02:39:38;9.03;;;3.03;;
2099;SDS011;1055;48.854;9.302;2023-04-25T02:42:04;6.90;;;3.60;;
2099;SDS011;1055;48.854;9.302;2023-04-25T02:44:30;6.77;;;3.10;;
2099;SDS011;1055;48.854;9.302;2023-04-25T02:46:55;6.50;;;3.43;;
2099;SDS011;1055;48.854;9.302;2023-04-25T02:49:21;7.30;;;3.27;;
2099;SDS011;1055;48.854;9.302;2023-04-25T02:51:47;9.90;;;2.67;;
2099;SDS011;1055;48.854;9.302;2023-04-25T02:54:12;7.47;;;3.27;;
2099;SDS011;1055;48.854;9.302;2023-04-25T02:56:38;8.83;;;3.90;;
2099;SDS011;1055;48.854;9.302;2023-04-25T02:59:03;7.37;;;3.40;;
2099;SDS011;1055;48.854;9.302;2023-04-25T03:01:29;7.93;;;4.00;;
2099;SDS011;1055;48.854;9.302;2023-04-25T03:03:54;7.03;;;3.10;;
2099;SDS011;1055;48.854;9.302;2023-04-25T03:06:20;9.80;;;3.47;;
2099;SDS011;1055;48.854;9.302;2023-04-25T03:08:46;7.27;;;3.40;;
2099;SDS011;1055;48.854;9.302;2023-04-25T03:11:11;7.73;;;3.63;;
2099;SDS011;1055;48.854;9.302;2023-04-25T03:13:37;7.73;;;3.87;;
2099;SDS011;1055;48.854;9.302;2023-04-25T03:16:02;6.83;;;4.30;;
2099;SDS011;1055;48.854;9.302;2023-04-25T03:18:28;6.37;;;3.40;;
2099;SDS011;1055;48.854;9.302;2023-04-25T03:20:54;7.60;;;3.70;;
2099;SDS011;1055;48.854;9.302;2023-04-25T03:23:20;8.30;;;3.40;;
2099;SDS011;1055;48.854;9.302;2023-04-25T03:25:46;7.00;;;3.63;;
2099;SDS011;1055;48.854;9.302;2023-04-25T03:28:11;7.40;;;3.47;;
2099;SDS011;1055;48.854;9.302;2023-04-25T03:30:37;9.20;;;3.90;;
2099;SDS011;1055;48.854;9.302;2023-04-25T03:33:02;7.50;;;4.33;;
2099;SDS011;1055;48.854;9.302;2023-04-25T03:35:28;7.63;;;3.70;;
2099;SDS011;1055;48.854;9.302;2023-04-25T03:37:53;6.43;;;3.40;;
2099;SDS011;1055;48.854;9.302;2023-04-25T03:40:19;6.67;;;3.73;;
2099;SDS011;1055;48.854;9.302;2023-04-25T03:42:45;6.90;;;3.77;;
2099;SDS011;1055;48.854;9.302;2023-04-25T03:45:10;6.97;;;4.07;;
2099;SDS011;1055;48.854;9.302;2023-04-25T03:47:36;8.57;;;4.30;;
2099;SDS011;1055;48.854;9.302;2023-04-25T03:50:02;9.10;;;4.30;;
2099;SDS011;1055;48.854;9.302;2023-04-25T03:52:27;7.90;;;4.43;;
2099;SDS011;1055;48.854;9.302;2023-04-25T03:54:53;7.43;;;4.47;;
2099;SDS011;1055;48.854;9.302;2023-04-25T03:57:19;8.53;;;4.43;;
2099;SDS011;1055;48.854;9.302;2023-04-25T03:59:44;8.70;;;4.00;;
2099;SDS011;1055;48.854;9.302;2023-04-25T04:02:10;7.70;;;3.87;;
2099;SDS011;1055;48.854;9.302;2023-04-25T04:04:36;8.53;;;4.10;;
2099;SDS011;1055;48.854;9.302;2023-04-25T04:07:02;7.72;;;3.75;;
2099;SDS011;1055;48.854;9.302;2023-04-25T04:09:27;7.80;;;4.20;;
2099;SDS011;1055;48.854;9.302;2023-04-25T04:11:53;7.43;;;4.00;;
2099;SDS011;1055;48.854;9.302;2023-04-25T04:14:18;8.40;;;5.03;;
2099;SDS011;1055;48.854;9.302;2023-04-25T04:16:44;8.43;;;4.37;;
2099;SDS011;1055;48.854;9.302;2023-04-25T04:19:10;8.30;;;4.50;;
2099;SDS011;1055;48.854;9.302;2023-04-25T04:21:36;8.93;;;4.47;;
2099;SDS011;1055;48.854;9.302;2023-04-25T04:24:01;10.03;;;4.50;;
2099;SDS011;1055;48.854;9.302;2023-04-25T04:26:27;9.40;;;4.70;;
2099;SDS011;1055;48.854;9.302;2023-04-25T04:28:53;9.90;;;4.30;;
2099;SDS011;1055;48.854;9.302;2023-04-25T04:31:22;8.65;;;4.75;;
2099;SDS011;1055;48.854;9.302;2023-04-25T04:33:49;9.07;;;5.28;;
2099;SDS011;1055;48.854;9.302;2023-04-25T04:36:14;8.82;;;4.85;;
2099;SDS011;1055;48.854;9.302;2023-04-25T04:38:40;6.87;;;3.60;;
2099;SDS011;1055;48.854;9.302;2023-04-25T04:41:07;10.20;;;5.88;;
2099;SDS011;1055;48.854;9.302;2023-04-25T04:43:33;8.63;;;5.57;;
2099;SDS011;1055;48.854;9.302;2023-04-25T04:46:01;9.20;;;5.80;;
2099;SDS011;1055;48.854;9.302;2023-04-25T04:48:29;11.40;;;5.63;;
2099;SDS011;1055;48.854;9.302;2023-04-25T04:50:57;9.75;;;5.20;;
2099;SDS011;1055;48.854;9.302;2023-04-25T04:53:23;13.55;;;5.80;;
2099;SDS011;1055;48.854;9.302;2023-04-25T04:55:49;11.97;;;6.50;;
2099;SDS011;1055;48.854;9.302;2023-04-25T04:58:15;10.10;;;5.53;;
2099;SDS011;1055;48.854;9.302;2023-04-25T05:00:40;8.80;;;4.87;;
2099;SDS011;1055;48.854;9.302;2023-04-25T05:03:06;9.27;;;5.20;;
2099;SDS011;1055;48.854;9.302;2023-04-25T05:05:32;7.57;;;4.47;;
2099;SDS011;1055;48.854;9.302;2023-04-25T05:07:57;8.83;;;5.20;;
2099;SDS011;1055;48.854;9.302;2023-04-25T05:10:23;9.50;;;5.60;;
2099;SDS011;1055;48.854;9.302;2023-04-25T05:12:49;8.60;;;4.90;;
2099;SDS011;1055;48.854;9.302;2023-04-25T05:15:15;11.00;;;5.50;;
2099;SDS011;1055;48.854;9.302;2023-04-25T05:17:41;8.70;;;5.50;;
2099;SDS011;1055;48.854;9.302;2023-04-25T05:20:06;8.00;;;4.53;;
2099;SDS011;1055;48.854;9.302;2023-04-25T05:22:34;7.50;;;4.45;;
2099;SDS011;1055;48.854;9.302;2023-04-25T05:25:01;9.70;;;5.20;;
2099;SDS011;1055;48.854;9.302;2023-04-25T05:27:26;9.13;;;5.33;;
2099;SDS011;1055;48.854;9.302;2023-04-25T05:29:52;11.80;;;5.30;;
2099;SDS011;1055;48.854;9.302;2023-04-25T05:32:17;9.10;;;5.30;;
2099;SDS011;1055;48.854;9.302;2023-04-25T05:34:43;8.50;;;5.20;;
2099;SDS011;1055;48.854;9.302;2023-04-25T05:37:09;7.73;;;4.57;;
2099;SDS011;1055;48.854;9.302;2023-04-25T05:39:35;8.73;;;4.67;;
2099;SDS011;1055;48.854;9.302;2023-04-25T05:42:00;8.87;;;4.60;;
2099;SDS011;1055;48.854;9.302;2023-04-25T05:44:26;9.33;;;4.83;;
2099;SDS011;1055;48.854;9.302;2023-04-25T05:46:52;8.40;;;4.60;;
2099;SDS011;1055;48.854;9.302;2023-04-25T05:49:17;8.63;;;5.03;;
2099;SDS011;1055;48.854;9.302;2023-04-25T05:51:43;8.00;;;4.50;;
2099;SDS011;1055;48.854;9.302;2023-04-25T05:54:08;8.87;;;3.87;;
2099;SDS011;1055;48.854;9.302;2023-04-25T05:56:34;7.90;;;4.70;;
2099;SDS011;1055;48.854;9.302;2023-04-25T05:59:00;10.03;;;4.00;;
2099;SDS011;1055;48.854;9.302;2023-04-25T06:01:26;8.73;;;5.30;;
2099;SDS011;1055;48.854;9.302;2023-04-25T06:03:51;8.43;;;5.13;;
2099;SDS011;1055;48.854;9.302;2023-04-25T06:06:17;9.53;;;5.37;;
2099;SDS011;1055;48.854;9.302;2023-04-25T06:08:43;9.40;;;5.30;;
2099;SDS011;1055;48.854;9.302;2023-04-25T06:11:09;8.35;;;5.10;;
2099;SDS011;1055;48.854;9.302;2023-04-25T06:13:35;9.50;;;5.20;;
2099;SDS011;1055;48.854;9.302;2023-04-25T06:16:01;10.30;;;5.43;;
2099;SDS011;1055;48.854;9.302;2023-04-25T06:18:26;9.40;;;5.13;;
2099;SDS011;1055;48.854;9.302;2023-04-25T06:20:52;9.37;;;5.23;;
2099;SDS011;1055;48.854;9.302;2023-04-25T06:23:17;11.37;;;6.20;;
2099;SDS011;1055;48.854;9.302;2023-04-25T06:25:43;9.60;;;5.20;;
2099;SDS011;1055;48.854;9.302;2023-04-25T06:28:09;7.23;;;3.37;;
2099;SDS011;1055;48.854;9.302;2023-04-25T06:30:34;10.73;;;5.40;;
2099;SDS011;1055;48.854;9.302;2023-04-25T06:33:00;9.43;;;5.50;;
2099;SDS011;1055;48.854;9.302;2023-04-25T06:35:25;9.23;;;5.17;;
2099;SDS011;1055;48.854;9.302;2023-04-25T06:37:51;9.00;;;5.67;;
2099;SDS011;1055;48.854;9.302;2023-04-25T06:40:16;10.00;;;5.77;;
2099;SDS011;1055;48.854;9.302;2023-04-25T06:42:42;8.97;;;4.87;;
2099;SDS011;1055;48.854;9.302;2023-04-25T06:45:08;8.33;;;4.93;;
2099;SDS011;1055;48.854;9.302;2023-04-25T06:47:34;8.38;;;4.85;;
2099;SDS011;1055;48.854;9.302;2023-04-25T06:49:59;8.63;;;4.53;;
2099;SDS011;1055;48.854;9.302;2023-04-25T06:52:25;9.23;;;5.20;;
2099;SDS011;1055;48.854;9.302;2023-04-25T06:54:51;9.73;;;6.13;;
2099;SDS011;1055;48.854;9.302;2023-04-25T06:57:16;10.27;;;5.57;;
2099;SDS011;1055;48.854;9.302;2023-04-25T06:59:42;9.50;;;5.40;;
2099;SDS011;1055;48.854;9.302;2023-04-25T07:02:07;10.73;;;5.63;;
2099;SDS011;1055;48.854;9.302;2023-04-25T07:04:33;8.57;;;5.20;;
2099;SDS011;1055;48.854;9.302;2023-04-25T07:06:59;9.00;;;5.27;;
2099;SDS011;1055;48.854;9.302;2023-04-25T07:09:27;9.27;;;5.50;;
2099;SDS011;1055;48.854;9.302;2023-04-25T07:11:53;9.63;;;5.70;;
2099;SDS011;1055;48.854;9.302;2023-04-25T07:14:18;11.00;;;5.63;;
2099;SDS011;1055;48.854;9.302;2023-04-25T07:16:44;8.60;;;5.27;;
2099;SDS011;1055;48.854;9.302;2023-04-25T07:19:09;8.57;;;5.40;;
2099;SDS011;1055;48.854;9.302;2023-04-25T07:21:35;9.60;;;6.00;;
2099;SDS011;1055;48.854;9.302;2023-04-25T07:24:01;8.60;;;5.47;;
2099;SDS011;1055;48.854;9.302;2023-04-25T07:26:27;9.83;;;5.60;;
2099;SDS011;1055;48.854;9.302;2023-04-25T07:28:52;8.93;;;5.83;;
2099;SDS011;1055;48.854;9.302;2023-04-25T07:31:19;9.23;;;5.68;;
2099;SDS011;1055;48.854;9.302;2023-04-25T07:33:46;10.82;;;5.68;;
2099;SDS011;1055;48.854;9.302;2023-04-25T07:36:12;9.27;;;5.00;;
2099;SDS011;1055;48.854;9.302;2023-04-25T07:38:38;10.23;;;5.20;;
2099;SDS011;1055;48.854;9.302;2023-04-25T07:41:04;8.73;;;5.32;;
2099;SDS011;1055;48.854;9.302;2023-04-25T07:43:30;7.77;;;4.63;;
2099;SDS011;1055;48.854;9.302;2023-04-25T07:45:55;7.30;;;4.13;;
2099;SDS011;1055;48.854;9.302;2023-04-25T07:48:21;8.68;;;3.95;;
2099;SDS011;1055;48.854;9.302;2023-04-25T07:50:47;9.30;;;4.10;;
2099;SDS011;1055;48.854;9.302;2023-04-25T07:53:13;8.20;;;3.87;;
2099;SDS011;1055;48.854;9.302;2023-04-25T07:55:39;8.10;;;5.13;;
2099;SDS011;1055;48.854;9.302;2023-04-25T07:58:05;8.70;;;5.22;;
2099;SDS011;1055;48.854;9.302;2023-04-25T08:00:34;10.43;;;5.50;;
2099;SDS011;1055;48.854;9.302;2023-04-25T08:03:01;10.13;;;5.63;;
2099;SDS011;1055;48.854;9.302;2023-04-25T08:05:28;12.65;;;6.05;;
2099;SDS011;1055;48.854;9.302;2023-04-25T08:07:53;15.90;;;7.13;;
2099;SDS011;1055;48.854;9.302;2023-04-25T08:10:20;10.70;;;6.35;;
2099;SDS011;1055;48.854;9.302;2023-04-25T08:12:47;11.90;;;7.60;;
2099;SDS011;1055;48.854;9.302;2023-04-25T08:15:15;12.77;;;7.63;;
2099;SDS011;1055;48.854;9.302;2023-04-25T08:17:40;12.18;;;7.70;;
2099;SDS011;1055;48.854;9.302;2023-04-25T08:20:06;11.70;;;8.30;;
2099;SDS011;1055;48.854;9.302;2023-04-25T08:22:32;11.27;;;7.47;;
2099;SDS011;1055;48.854;9.302;2023-04-25T08:24:59;12.68;;;8.02;;
2099;SDS011;1055;48.854;9.302;2023-04-25T08:27:24;12.70;;;8.20;;
2099;SDS011;1055;48.854;9.302;2023-04-25T08:29:50;13.97;;;9.03;;
2099;SDS011;1055;48.854;9.302;2023-04-25T08:32:16;18.00;;;8.50;;
2099;SDS011;1055;48.854;9.302;2023-04-25T08:34:42;15.63;;;8.83;;
2099;SDS011;1055;48.854;9.302;2023-04-25T08:37:09;13.23;;;9.77;;
2099;SDS011;1055;48.854;9.302;2023-04-25T08:39:35;13.40;;;8.80;;
2099;SDS011;1055;48.854;9.302;2023-04-25T08:42:02;13.27;;;9.15;;
2099;SDS011;1055;48.854;9.302;2023-04-25T08:44:33;12.85;;;9.57;;
2099;SDS011;1055;48.854;9.302;2023-04-25T08:47:00;14.32;;;8.85;;
2099;SDS011;1055;48.854;9.302;2023-04-25T08:49:31;13.90;;;9.32;;
2099;SDS011;1055;48.854;9.302;2023-04-25T08:51:59;13.57;;;9.60;;
2099;SDS011;1055;48.854;9.302;2023-04-25T08:54:27;12.98;;;8.80;;
2099;SDS011;1055;48.854;9.302;2023-04-25T08:56:54;13.32;;;8.98;;
2099;SDS011;1055;48.854;9.302;2023-04-25T08:59:22;13.32;;;8.85;;
2099;SDS011;1055;48.854;9.302;2023-04-25T09:01:51;13.32;;;8.05;;
2099;SDS011;1055;48.854;9.302;2023-04-25T09:04:17;15.90;;;8.30;;
2099;SDS011;1055;48.854;9.302;2023-04-25T09:06:44;13.95;;;9.10;;
2099;SDS011;1055;48.854;9.302;2023-04-25T09:09:10;12.68;;;9.13;;
2099;SDS011;1055;48.854;9.302;2023-04-25T09:11:37;13.23;;;8.77;;
2099;SDS011;1055;48.854;9.302;2023-04-25T09:14:13;14.80;;;9.50;;
2099;SDS011;1055;48.854;9.302;2023-04-25T09:19:27;11.43;;;7.72;;
2099;SDS011;1055;48.854;9.302;2023-04-25T09:21:54;15.00;;;8.50;;
2099;SDS011;1055;48.854;9.302;2023-04-25T09:24:39;13.10;;;7.55;;
2099;SDS011;1055;48.854;9.302;2023-04-25T09:27:11;13.05;;;8.77;;
2099;SDS011;1055;48.854;9.302;2023-04-25T09:29:42;13.48;;;9.10;;
2099;SDS011;1055;48.854;9.302;2023-04-25T09:34:40;13.15;;;9.23;;
2099;SDS011;1055;48.854;9.302;2023-04-25T09:37:16;13.00;;;9.18;;
2099;SDS011;1055;48.854;9.302;2023-04-25T09:39:44;11.30;;;7.60;;
2099;SDS011;1055;48.854;9.302;2023-04-25T09:42:11;13.43;;;8.63;;
2099;SDS011;1055;48.854;9.302;2023-04-25T09:44:41;12.10;;;8.43;;
2099;SDS011;1055;48.854;9.302;2023-04-25T09:47:11;13.15;;;9.25;;
2099;SDS011;1055;48.854;9.302;2023-04-25T09:49:41;13.52;;;8.85;;
2099;SDS011;1055;48.854;9.302;2023-04-25T09:52:08;13.93;;;9.90;;
2099;SDS011;1055;48.854;9.302;2023-04-25T09:54:34;12.23;;;8.77;;
2099;SDS011;1055;48.854;9.302;2023-04-25T09:57:42;13.37;;;8.80;;
2099;SDS011;1055;48.854;9.302;2023-04-25T09:59:51;13.48;;;9.43;;
2099;SDS011;1055;48.854;9.302;2023-04-25T10:02:18;13.82;;;9.93;;
2099;SDS011;1055;48.854;9.302;2023-04-25T10:04:52;15.10;;;10.02;;
2099;SDS011;1055;48.854;9.302;2023-04-25T10:07:24;14.05;;;9.07;;
2099;SDS011;1055;48.854;9.302;2023-04-25T10:09:54;16.70;;;10.18;;
2099;SDS011;1055;48.854;9.302;2023-04-25T10:12:24;12.95;;;8.82;;
2099;SDS011;1055;48.854;9.302;2023-04-25T10:14:52;13.77;;;9.55;;
2099;SDS011;1055;48.854;9.302;2023-04-25T10:17:17;16.05;;;9.38;;
2099;SDS011;1055;48.854;9.302;2023-04-25T10:19:45;12.63;;;7.47;;
2099;SDS011;1055;48.854;9.302;2023-04-25T10:22:17;14.75;;;9.45;;
2099;SDS011;1055;48.854;9.302;2023-04-25T10:24:44;13.10;;;7.07;;
2099;SDS011;1055;48.854;9.302;2023-04-25T10:27:11;11.32;;;6.45;;
2099;SDS011;1055;48.854;9.302;2023-04-25T10:29:37;11.75;;;6.85;;
2099;SDS011;1055;48.854;9.302;2023-04-25T10:32:03;10.67;;;5.27;;
2099;SDS011;1055;48.854;9.302;2023-04-25T10:34:42;11.65;;;7.43;;
2099;SDS011;1055;48.854;9.302;2023-04-25T10:37:12;13.30;;;6.32;;
2099;SDS011;1055;48.854;9.302;2023-04-25T10:39:41;12.52;;;6.47;;
2099;SDS011;1055;48.854;9.302;2023-04-25T10:42:07;11.25;;;6.57;;
2099;SDS011;1055;48.854;9.302;2023-04-25T10:44:33;13.88;;;6.22;;
2099;SDS011;1055;48.854;9.302;2023-04-25T10:47:01;10.50;;;5.45;;
2099;SDS011;1055;48.854;9.302;2023-04-25T10:54:40;12.48;;;6.80;;
2099;SDS011;1055;48.854;9.302;2023-04-25T10:57:26;12.80;;;6.20;;
2099;SDS011;1055;48.854;9.302;2023-04-25T10:59:59;13.52;;;8.18;;
2099;SDS011;1055;48.854;9.302;2023-04-25T11:02:26;12.27;;;6.70;;
2099;SDS011;1055;48.854;9.302;2023-04-25T11:04:54;11.93;;;6.95;;
2099;SDS011;1055;48.854;9.302;2023-04-25T11:07:26;13.43;;;7.60;;
2099;SDS011;1055;48.854;9.302;2023-04-25T11:10:01;12.80;;;7.88;;
2099;SDS011;1055;48.854;9.302;2023-04-25T11:12:29;13.57;;;7.35;;
2099;SDS011;1055;48.854;9.302;2023-04-25T11:15:03;12.82;;;8.02;;
2099;SDS011;1055;48.854;9.302;2023-04-25T11:17:30;12.68;;;7.75;;
2099;SDS011;1055;48.854;9.302;2023-04-25T11:19:56;13.60;;;8.05;;
2099;SDS011;1055;48.854;9.302;2023-04-25T11:22:22;12.10;;;7.45;;
2099;SDS011;1055;48.854;9.302;2023-04-25T11:24:48;12.10;;;7.68;;
2099;SDS011;1055;48.854;9.302;2023-04-25T11:27:14;11.67;;;7.80;;
2099;SDS011;1055;48.854;9.302;2023-04-25T11:29:40;15.07;;;7.67;;
2099;SDS011;1055;48.854;9.302;2023-04-25T11:32:06;12.80;;;7.95;;
2099;SDS011;1055;48.854;9.302;2023-04-25T11:34:32;12.53;;;7.30;;
2099;SDS011;1055;48.854;9.302;2023-04-25T11:36:58;11.27;;;7.20;;
2099;SDS011;1055;48.854;9.302;2023-04-25T11:39:27;11.60;;;6.53;;
2099;SDS011;1055;48.854;9.302;2023-04-25T11:41:54;10.98;;;6.65;;
2099;SDS011;1055;48.854;9.302;2023-04-25T11:44:20;11.18;;;6.35;;
2099;SDS011;1055;48.854;9.302;2023-04-25T11:46:46;13.15;;;7.32;;
2099;SDS011;1055;48.854;9.302;2023-04-25T11:49:13;9.88;;;6.13;;
2099;SDS011;1055;48.854;9.302;2023-04-25T11:51:46;12.70;;;6.40;;
2099;SDS011;1055;48.854;9.302;2023-04-25T11:54:13;10.50;;;6.00;;
2099;SDS011;1055;48.854;9.302;2023-04-25T11:56:43;9.35;;;5.03;;
2099;SDS011;1055;48.854;9.302;2023-04-25T11:59:10;9.68;;;5.22;;
2099;SDS011;1055;48.854;9.302;2023-04-25T12:01:38;7.53;;;4.20;;
2099;SDS011;1055;48.854;9.302;2023-04-25T12:04:11;10.35;;;5.05;;
2099;SDS011;1055;48.854;9.302;2023-04-25T12:06:37;9.55;;;5.40;;
2099;SDS011;1055;48.854;9.302;2023-04-25T12:09:07;10.27;;;5.22;;
2099;SDS011;1055;48.854;9.302;2023-04-25T12:11:40;10.52;;;6.28;;
2099;SDS011;1055;48.854;9.302;2023-04-25T12:14:11;12.23;;;5.78;;
2099;SDS011;1055;48.854;9.302;2023-04-25T12:16:44;11.85;;;6.78;;
2099;SDS011;1055;48.854;9.302;2023-04-25T12:19:15;9.40;;;5.18;;
2099;SDS011;1055;48.854;9.302;2023-04-25T12:21:42;10.07;;;5.25;;
2099;SDS011;1055;48.854;9.302;2023-04-25T12:24:16;9.98;;;5.97;;
2099;SDS011;1055;48.854;9.302;2023-04-25T12:26:50;10.60;;;6.20;;
2099;SDS011;1055;48.854;9.302;2023-04-25T12:29:20;8.98;;;4.53;;
2099;SDS011;1055;48.854;9.302;2023-04-25T12:31:47;10.38;;;5.60;;
2099;SDS011;1055;48.854;9.302;2023-04-25T12:34:13;10.98;;;6.15;;
2099;SDS011;1055;48.854;9.302;2023-04-25T12:36:39;10.47;;;5.93;;
2099;SDS011;1055;48.854;9.302;2023-04-25T12:39:05;12.90;;;6.70;;
2099;SDS011;1055;48.854;9.302;2023-04-25T12:41:31;10.40;;;6.55;;
2099;SDS011;1055;48.854;9.302;2023-04-25T12:43:57;11.10;;;6.33;;
2099;SDS011;1055;48.854;9.302;2023-04-25T12:46:23;14.23;;;7.57;;
2099;SDS011;1055;48.854;9.302;2023-04-25T12:48:49;11.23;;;6.15;;
2099;SDS011;1055;48.854;9.302;2023-04-25T12:51:15;14.53;;;7.50;;
2099;SDS011;1055;48.854;9.302;2023-04-25T12:53:40;10.53;;;6.07;;
2099;SDS011;1055;48.854;9.302;2023-04-25T12:56:06;13.27;;;7.75;;
2099;SDS011;1055;48.854;9.302;2023-04-25T12:58:33;14.25;;;7.35;;
2099;SDS011;1055;48.854;9.302;2023-04-25T13:00:58;14.07;;;8.37;;
2099;SDS011;1055;48.854;9.302;2023-04-25T13:03:24;14.70;;;7.60;;
2099;SDS011;1055;48.854;9.302;2023-04-25T13:05:50;12.15;;;6.50;;
2099;SDS011;1055;48.854;9.302;2023-04-25T13:08:18;15.43;;;7.65;;
2099;SDS011;1055;48.854;9.302;2023-04-25T13:10:44;12.98;;;7.50;;
2099;SDS011;1055;48.854;9.302;2023-04-25T13:13:10;17.00;;;8.20;;
2099;SDS011;1055;48.854;9.302;2023-04-25T13:15:35;13.43;;;7.33;;
2099;SDS011;1055;48.854;9.302;2023-04-25T13:18:02;13.10;;;7.53;;
2099;SDS011;1055;48.854;9.302;2023-04-25T13:20:28;12.93;;;7.00;;
2099;SDS011;1055;48.854;9.302;2023-04-25T13:22:54;14.23;;;8.50;;
2099;SDS011;1055;48.854;9.302;2023-04-25T13:25:20;13.57;;;8.10;;
2099;SDS011;1055;48.854;9.302;2023-04-25T13:27:46;13.45;;;8.50;;
2099;SDS011;1055;48.854;9.302;2023-04-25T13:30:12;13.57;;;7.20;;
2099;SDS011;1055;48.854;9.302;2023-04-25T13:32:39;14.00;;;8.30;;
2099;SDS011;1055;48.854;9.302;2023-04-25T13:35:05;14.55;;;8.35;;
2099;SDS011;1055;48.854;9.302;2023-04-25T13:37:33;15.35;;;8.05;;
2099;SDS011;1055;48.854;9.302;2023-04-25T13:39:59;14.50;;;6.50;;
2099;SDS011;1055;48.854;9.302;2023-04-25T13:42:25;15.85;;;9.25;;
2099;SDS011;1055;48.854;9.302;2023-04-25T13:44:51;15.30;;;8.87;;
2099;SDS011;1055;48.854;9.302;2023-04-25T13:47:17;12.87;;;7.83;;
2099;SDS011;1055;48.854;9.302;2023-04-25T13:49:42;14.30;;;8.67;;
2099;SDS011;1055;48.854;9.302;2023-04-25T13:52:08;16.60;;;10.00;;
2099;SDS011;1055;48.854;9.302;2023-04-25T13:54:33;16.27;;;11.30;;
2099;SDS011;1055;48.854;9.302;2023-04-25T13:56:59;15.50;;;9.13;;
2099;SDS011;1055;48.854;9.302;2023-04-25T13:59:25;22.80;;;12.63;;
2099;SDS011;1055;48.854;9.302;2023-04-25T14:01:51;19.20;;;12.77;;
2099;SDS011;1055;48.854;9.302;2023-04-25T14:04:17;14.00;;;8.27;;
2099;SDS011;1055;48.854;9.302;2023-04-25T14:06:45;18.02;;;12.10;;
2099;SDS011;1055;48.854;9.302;2023-04-25T14:09:11;18.20;;;12.43;;
2099;SDS011;1055;48.854;9.302;2023-04-25T14:11:38;17.02;;;11.73;;
2099;SDS011;1055;48.854;9.302;2023-04-25T14:14:05;18.25;;;9.43;;
2099;SDS011;1055;48.854;9.302;2023-04-25T14:16:33;16.08;;;9.45;;
2099;SDS011;1055;48.854;9.302;2023-04-25T14:19:00;16.65;;;11.48;;
2099;SDS011;1055;48.854;9.302;2023-04-25T14:21:26;15.57;;;10.37;;
2099;SDS011;1055;48.854;9.302;2023-04-25T14:23:53;13.10;;;9.95;;
2099;SDS011;1055;48.854;9.302;2023-04-25T14:26:19;12.70;;;9.35;;
2099;SDS011;1055;48.854;9.302;2023-04-25T14:28:45;14.90;;;9.87;;
2099;SDS011;1055;48.854;9.302;2023-04-25T14:31:10;13.20;;;8.50;;
2099;SDS011;1055;48.854;9.302;2023-04-25T14:33:36;14.07;;;8.37;;
2099;SDS011;1055;48.854;9.302;2023-04-25T14:36:04;17.58;;;10.13;;
2099;SDS011;1055;48.854;9.302;2023-04-25T14:38:30;16.33;;;9.98;;
2099;SDS011;1055;48.854;9.302;2023-04-25T14:40:56;14.93;;;7.83;;
2099;SDS011;1055;48.854;9.302;2023-04-25T14:43:22;13.60;;;6.50;;
2099;SDS011;1055;48.854;9.302;2023-04-25T14:45:47;16.70;;;8.63;;
2099;SDS011;1055;48.854;9.302;2023-04-25T14:48:13;12.77;;;7.60;;
2099;SDS011;1055;48.854;9.302;2023-04-25T14:50:40;13.50;;;9.68;;
2099;SDS011;1055;48.854;9.302;2023-04-25T14:53:05;12.80;;;8.07;;
2099;SDS011;1055;48.854;9.302;2023-04-25T14:55:31;13.23;;;8.23;;
2099;SDS011;1055;48.854;9.302;2023-04-25T14:57:57;11.77;;;7.70;;
2099;SDS011;1055;48.854;9.302;2023-04-25T15:00:23;12.97;;;8.90;;
2099;SDS011;1055;48.854;9.302;2023-04-25T15:02:50;13.32;;;7.95;;
2099;SDS011;1055;48.854;9.302;2023-04-25T15:05:16;12.90;;;8.50;;
2099;SDS011;1055;48.854;9.302;2023-04-25T15:07:42;13.68;;;8.02;;
2099;SDS011;1055;48.854;9.302;2023-04-25T15:10:08;13.17;;;8.20;;
2099;SDS011;1055;48.854;9.302;2023-04-25T15:12:40;12.05;;;6.03;;
2099;SDS011;1055;48.854;9.302;2023-04-25T15:15:07;15.55;;;8.20;;